Terminal Aerodrome Forecast
Issued by NWS Charleston, SC

Home | Current Version | Previous Version | Text Only | Print | Product List | Glossary On
Versions: 1 2 3 4 5 6 7 8 9 10 11 12 13 14 15 16 17 18 19 20 21 22 23
000
FTUS42 KCHS 201400 AAB
TAFSAV
TAF AMD
KSAV 201448Z 2015/2112 04009KT P6SM BKN015 OVC030
     FM201700 02012G17KT P6SM SCT025 BKN040
     FM210200 35008KT P6SM SCT015 BKN150=

USA.gov is the U.S. government's official web portal to all federal, state and local government web resources and services.